Airfield :
LOGIN :

Register | Disclaimer

   EN    FR    IT 

 










Legend :    VFR   Marginal VFR   IFR   Intensive IFR   Very Intensive IFR
Visi :
Ceiling :
>= 8 km
>= 3000ft
5 to 8 km
1000 to 3000 ft
1500m to 5 km
500 to 1000 ft
800 to 1500m
200 to 500 ft
< 800m
< 200 ft
Symbols :   Thunderstorms  Fog  Heavy snow  Heavy precipitations  Wind > 20 kt
SIGMETs :     Misc.  Thunderstorms  Icing  Turbulence  Mountain Waves  Volcanic Ashes







- Airport Elevation : 17 ft
- IATA code : DND
- Download approach charts


EGPN - Dundee

CURRENT METAR :
  • 131520Z 15015KT 9999 FEW040 06/01 Q1019

EXPIRED METARs :
  • 131450Z 16016KT 9999 FEW040 06/01 Q1019
  • 131420Z 16017KT 9999 FEW040 06/01 Q1019
  • 131350Z 16015KT 9999 FEW040 06/00 Q1019
  • 131320Z 16016KT 9999 FEW040 06/00 Q1019
  • 131250Z 16017KT 9999 FEW040 06/00 Q1019

TAF TAF EGPN
Valid from the 13 at 15:00 until the 13 at 21:00 UTC


131400Z 1315/1321 16012KT 9999 FEW040
No reported NOTAMs for that airfield.
2 SIGMETs reported for the Scottish FIR (EGPX) :
 
Severe turbulence
EGPX SIGMET 07 VALID 131500/131900 EGRR
EGPX SCOTTISH FIR SEV TURB FCST WI N6100 W00845 - N6100 W00122 - N5500 W00414 - N5500 W00518 - N6100 W00845 SFC/FL060 STNR NC=
Severe turbulence
EGPX SIGMET 06 VALID 131100/131500 EGRR
EGPX SCOTTISH FIR SEV TURB FCST WI N5500 W00518 - N6100 W00845 - N6100 W00122 - N5500 W00414 - N5500 W00518 SFC/FL060 STNR NC=



MET'MAP, your aeronautical weather chart ! - Copyright ORBIFLY December 2007 - Disclaimer

ORBIFLY MET'MAP TEAM :

Programming & Development : Alexandra Zaïnal
Concept & Development : Baudouin d'Aumeries
Co-Development & Prog : Marc-Olivier Méhu
Technical & hardware support : Manuel Goepfert

Contact : metmap@orbifly.com




SOURCES & CREDITS :

   NOAA